createdAt,value
2019-01-28T00:03:48.970Z,0.80
2019-01-28T00:06:36.795Z,0.80
2019-01-28T00:09:45.261Z,0.87
2019-01-28T00:12:14.095Z,0.77
2019-01-28T00:14:44.322Z,0.79
2019-01-28T00:17:13.013Z,0.76
2019-01-28T00:19:41.653Z,0.73
2019-01-28T00:22:10.354Z,0.72
2019-01-28T00:24:58.313Z,0.71
2019-01-28T00:27:46.177Z,0.75
2019-01-28T00:30:14.854Z,0.76
2019-01-28T00:33:02.612Z,0.71
2019-01-28T00:35:50.548Z,0.71
2019-01-28T00:38:38.376Z,0.73
2019-01-28T00:41:46.899Z,0.68
2019-01-28T00:47:22.344Z,0.75
2019-01-28T00:49:51.376Z,0.68
2019-01-28T00:52:39.190Z,0.72
2019-01-28T00:55:47.600Z,0.69
2019-01-28T00:58:35.416Z,0.74
2019-01-28T01:01:23.376Z,0.78
2019-01-28T01:03:52.017Z,0.75
2019-01-28T01:06:20.662Z,0.79
2019-01-28T01:09:08.514Z,0.81
2019-01-28T01:14:24.779Z,0.82
2019-01-28T01:16:53.451Z,0.80
2019-01-28T01:19:41.476Z,0.82
2019-01-28T01:22:29.335Z,0.82
2019-01-28T01:24:57.984Z,0.79
2019-01-28T01:27:45.863Z,0.79
2019-01-28T01:30:33.789Z,0.77
2019-01-28T01:33:02.487Z,0.86
2019-01-28T01:35:50.316Z,0.87
2019-01-28T01:38:39.577Z,0.88
2019-01-28T01:41:08.223Z,0.83
2019-01-28T01:43:56.091Z,0.80
2019-01-28T01:46:44.000Z,0.79
2019-01-28T01:49:12.670Z,0.78
2019-01-28T01:51:41.322Z,0.79
2019-01-28T01:54:09.999Z,0.78
2019-01-28T01:56:57.759Z,0.76
2019-01-28T01:59:45.630Z,0.72
2019-01-28T02:02:33.711Z,0.66
2019-01-28T02:05:23.132Z,0.61
2019-01-28T02:08:11.042Z,0.61
2019-01-28T02:13:13.990Z,0.46
2019-01-28T02:15:42.685Z,0.44
2019-01-28T02:18:30.540Z,0.40
2019-01-28T02:21:18.434Z,0.34
2019-01-28T02:24:06.307Z,0.32
2019-01-28T02:26:54.257Z,0.35
2019-01-28T02:29:42.056Z,0.34
2019-01-28T02:35:04.057Z,0.32
2019-01-28T02:37:51.976Z,0.33
2019-01-28T02:40:20.678Z,0.33
2019-01-28T02:42:49.370Z,0.23
2019-01-28T02:45:18.006Z,0.21
2019-01-28T02:47:46.710Z,0.25
2019-01-28T02:53:09.190Z,0.21
2019-01-28T02:55:56.972Z,0.27
2019-01-28T02:58:44.859Z,0.20
2019-01-28T03:01:13.498Z,0.19
2019-01-28T03:03:42.260Z,0.17
2019-01-28T03:06:11.076Z,0.14
2019-01-28T03:08:39.790Z,0.15
2019-01-28T03:11:10.441Z,0.08
2019-01-28T03:13:39.026Z,0.06
2019-01-28T03:16:07.707Z,0.02
2019-01-28T03:18:55.492Z,0.04
2019-01-28T03:21:24.198Z,0.09
2019-01-28T03:23:52.900Z,0.06
2019-01-28T03:26:21.548Z,0.06
2019-01-28T03:29:09.497Z,0.06
2019-01-28T03:31:57.454Z,0.07
2019-01-28T03:34:45.327Z,0.04
2019-01-28T03:37:33.198Z,-0.01
2019-01-28T03:40:21.185Z,-0.04
2019-01-28T03:43:29.668Z,-0.02
2019-01-28T03:46:17.607Z,0.01
2019-01-28T03:48:46.350Z,-0.03
2019-01-28T03:51:15.037Z,0.00
2019-01-28T03:53:43.899Z,0.06
2019-01-28T03:56:31.864Z,0.12
2019-01-28T03:59:00.523Z,0.20
2019-01-28T04:01:29.202Z,0.26
2019-01-28T04:03:57.983Z,0.36
2019-01-28T04:06:45.903Z,0.42
2019-01-28T04:09:14.603Z,0.45
2019-01-28T04:12:02.434Z,0.47
2019-01-28T04:14:50.320Z,0.47
2019-01-28T04:17:19.211Z,0.51
2019-01-28T04:19:47.923Z,0.51
2019-01-28T04:22:16.641Z,0.51
2019-01-28T04:24:45.287Z,0.49
2019-01-28T04:27:33.223Z,0.56
2019-01-28T04:30:21.137Z,0.54
2019-01-28T04:33:09.028Z,0.57
2019-01-28T04:35:37.708Z,0.57
2019-01-28T04:38:25.590Z,0.63
2019-01-28T04:41:13.527Z,0.57
2019-01-28T04:44:01.418Z,0.58
2019-01-28T04:46:49.317Z,0.64
2019-01-28T04:52:24.765Z,0.58
2019-01-28T04:54:53.457Z,0.57
2019-01-28T05:00:49.561Z,0.56
2019-01-28T05:03:18.211Z,0.58
2019-01-28T05:06:06.092Z,0.53
2019-01-28T05:08:34.805Z,0.57
2019-01-28T05:11:22.711Z,0.61
2019-01-28T05:14:10.665Z,0.59
2019-01-28T05:16:58.609Z,0.58
2019-01-28T05:19:27.297Z,0.58
2019-01-28T05:22:15.213Z,0.57
2019-01-28T05:25:03.165Z,0.58
2019-01-28T05:27:31.867Z,0.55
2019-01-28T05:30:00.522Z,0.61
2019-01-28T05:32:29.239Z,0.63
2019-01-28T05:35:17.134Z,0.63
2019-01-28T05:37:45.795Z,0.61
2019-01-28T05:40:54.321Z,0.67
2019-01-28T05:43:42.178Z,0.73
2019-01-28T05:46:10.889Z,0.69
2019-01-28T05:48:58.843Z,0.73
2019-01-28T05:51:27.499Z,0.70
2019-01-28T05:53:56.181Z,0.75
2019-01-28T05:56:44.101Z,0.72
2019-01-28T05:59:12.779Z,0.77
2019-01-28T06:01:41.480Z,0.69
2019-01-28T06:04:29.429Z,0.72
2019-01-28T06:07:17.361Z,0.66
2019-01-28T06:09:46.039Z,0.72
2019-01-28T06:12:34.163Z,0.67
2019-01-28T06:15:02.859Z,0.71
2019-01-28T06:17:50.760Z,0.63
2019-01-28T06:23:13.536Z,0.61
2019-01-28T06:26:01.353Z,0.64
2019-01-28T06:28:30.053Z,0.59
2019-01-28T06:31:18.187Z,0.61
2019-01-28T06:34:06.064Z,0.64
2019-01-28T06:36:53.945Z,0.70
2019-01-28T06:39:41.905Z,0.65
2019-01-28T06:42:29.686Z,0.67
2019-01-28T06:45:17.635Z,0.56
2019-01-28T06:47:47.192Z,0.57
2019-01-28T06:50:56.477Z,0.60
2019-01-28T06:53:44.295Z,0.61
2019-01-28T06:56:32.220Z,0.60
2019-01-28T06:59:01.025Z,0.61
2019-01-28T07:01:50.281Z,0.60
2019-01-28T07:04:19.355Z,0.62
2019-01-28T07:07:07.213Z,0.66
2019-01-28T07:09:55.077Z,0.64
2019-01-28T07:12:23.846Z,0.62
2019-01-28T07:15:11.893Z,0.62
2019-01-28T07:17:59.759Z,0.65
2019-01-28T07:20:47.587Z,0.60
2019-01-28T07:23:35.561Z,0.66
2019-01-28T07:26:04.293Z,0.62
2019-01-28T07:28:52.248Z,0.65
2019-01-28T07:34:35.295Z,0.73
2019-01-28T07:37:04.162Z,0.75
2019-01-28T07:39:52.080Z,0.72
2019-01-28T07:42:39.996Z,0.76
2019-01-28T07:45:48.525Z,0.81
2019-01-28T07:48:36.409Z,0.81
2019-01-28T07:51:44.831Z,0.85
2019-01-28T07:54:13.521Z,0.84
2019-01-28T07:57:01.455Z,0.96
2019-01-28T07:59:49.421Z,0.97
2019-01-28T08:02:37.242Z,0.96
2019-01-28T08:05:45.667Z,0.95
2019-01-28T08:08:14.347Z,1.00
2019-01-28T08:13:17.006Z,1.00
2019-01-28T08:15:45.765Z,1.00
2019-01-28T08:18:33.919Z,1.08
2019-01-28T08:21:21.863Z,1.08
2019-01-28T08:24:09.815Z,1.01
2019-01-28T08:26:57.765Z,0.98
2019-01-28T08:29:26.409Z,0.97
2019-01-28T08:32:14.272Z,0.99
2019-01-28T08:35:02.016Z,1.03
2019-01-28T08:37:30.678Z,1.11
2019-01-28T08:39:59.348Z,1.16
2019-01-28T08:42:28.011Z,1.28
2019-01-28T08:44:56.642Z,1.23
2019-01-28T08:47:25.308Z,1.41
2019-01-28T08:49:54.000Z,1.34
2019-01-28T08:52:22.673Z,1.30
2019-01-28T08:54:51.307Z,1.34
2019-01-28T08:57:19.970Z,1.24
2019-01-28T08:59:48.669Z,1.27
2019-01-28T09:02:17.283Z,1.28
2019-01-28T09:04:45.942Z,1.24
2019-01-28T09:07:14.568Z,1.22
2019-01-28T09:09:43.231Z,1.28
2019-01-28T09:12:11.852Z,1.27
2019-01-28T09:14:40.505Z,1.30
2019-01-28T09:17:09.127Z,1.43
2019-01-28T09:19:37.802Z,1.62
2019-01-28T09:25:54.517Z,1.63
2019-01-28T09:28:42.491Z,1.71
2019-01-28T09:31:30.318Z,1.79
2019-01-28T09:34:18.195Z,1.80
2019-01-28T09:36:46.852Z,1.76
2019-01-28T09:39:15.494Z,1.86
2019-01-28T09:42:03.382Z,1.72
2019-01-28T09:44:51.255Z,1.83
2019-01-28T09:47:39.210Z,1.69
2019-01-28T09:50:47.696Z,1.82
2019-01-28T09:53:16.355Z,1.99
2019-01-28T09:56:04.233Z,1.80
2019-01-28T09:58:32.897Z,1.75
2019-01-28T10:03:56.517Z,1.61
2019-01-28T10:06:25.204Z,1.68
2019-01-28T10:09:13.082Z,1.73
2019-01-28T10:12:01.040Z,1.74
2019-01-28T10:14:48.931Z,1.86
2019-01-28T10:17:36.799Z,1.73
2019-01-28T10:20:45.241Z,1.80
2019-01-28T10:23:33.104Z,1.94
2019-01-28T10:26:20.888Z,2.06
2019-01-28T10:28:49.612Z,1.98
2019-01-28T10:31:18.293Z,2.08
2019-01-28T10:34:06.457Z,2.22
2019-01-28T10:36:36.497Z,2.19
2019-01-28T10:39:25.846Z,2.22
2019-01-28T10:42:13.779Z,2.39
2019-01-28T10:45:01.562Z,2.37
2019-01-28T10:47:49.491Z,2.42
2019-01-28T10:50:37.751Z,2.44
2019-01-28T10:56:14.577Z,2.29
2019-01-28T10:59:02.355Z,2.24
2019-01-28T11:01:31.033Z,2.33
2019-01-28T11:06:47.303Z,2.34
2019-01-28T11:09:35.320Z,2.22
2019-01-28T11:12:23.234Z,2.21
2019-01-28T11:15:11.089Z,1.99
2019-01-28T11:17:39.870Z,2.01
2019-01-28T11:20:50.038Z,2.01
2019-01-28T11:23:18.802Z,1.93
2019-01-28T11:26:08.341Z,1.98
2019-01-28T11:28:56.348Z,1.94
2019-01-28T11:31:45.853Z,2.01
2019-01-28T11:34:33.986Z,1.84
2019-01-28T11:39:59.033Z,1.85
2019-01-28T11:42:46.938Z,1.86
2019-01-28T11:45:55.473Z,1.85
2019-01-28T11:51:18.607Z,1.78
2019-01-28T11:54:06.519Z,1.80
2019-01-28T11:56:54.482Z,1.82
2019-01-28T11:59:42.370Z,1.91
2019-01-28T12:02:34.397Z,1.98
2019-01-28T12:05:19.913Z,2.05
2019-01-28T12:08:28.322Z,2.02
2019-01-28T12:11:16.266Z,1.96
2019-01-28T12:14:04.094Z,1.91
2019-01-28T12:16:51.983Z,1.94
2019-01-28T12:19:39.826Z,1.98
2019-01-28T12:25:22.051Z,2.25
2019-01-28T12:28:09.905Z,2.23
2019-01-28T12:31:18.376Z,1.90
2019-01-28T12:33:47.057Z,1.92
2019-01-28T12:36:34.922Z,1.90
2019-01-28T12:39:45.115Z,1.82
2019-01-28T12:42:13.891Z,1.84
2019-01-28T12:45:01.743Z,1.68
2019-01-28T12:47:49.694Z,1.58
2019-01-28T12:50:58.170Z,1.60
2019-01-28T12:53:46.065Z,1.55
2019-01-28T12:56:34.015Z,1.49
2019-01-28T12:59:21.932Z,1.45
2019-01-28T13:02:09.874Z,1.43
2019-01-28T13:04:57.773Z,1.46
2019-01-28T13:07:45.648Z,1.42
2019-01-28T13:10:54.065Z,1.47
2019-01-28T13:13:22.766Z,1.33
2019-01-28T13:18:27.000Z,1.17
2019-01-28T13:21:14.840Z,1.15
2019-01-28T13:24:02.785Z,1.17
2019-01-28T13:26:50.702Z,1.18
2019-01-28T13:29:38.651Z,1.25
2019-01-28T13:32:47.145Z,1.37
2019-01-28T13:38:10.509Z,1.37
2019-01-28T13:40:58.380Z,1.24
2019-01-28T13:43:27.154Z,1.26
2019-01-28T13:46:15.174Z,1.20
2019-01-28T13:49:03.135Z,1.16
2019-01-28T13:51:51.061Z,1.26
2019-01-28T13:54:39.009Z,1.28
2019-01-28T13:57:26.842Z,1.21
2019-01-28T14:00:14.621Z,1.17
2019-01-28T14:08:12.497Z,1.03
2019-01-28T14:11:00.309Z,1.01
2019-01-28T14:13:48.245Z,0.96
2019-01-28T14:19:30.863Z,0.88
2019-01-28T14:22:18.706Z,0.98
2019-01-28T14:25:06.535Z,0.94
2019-01-28T14:27:35.230Z,0.96
2019-01-28T14:33:18.071Z,0.81
2019-01-28T14:36:07.402Z,0.76
2019-01-28T14:38:55.218Z,0.72
2019-01-28T14:41:43.162Z,0.70
2019-01-28T14:44:31.004Z,0.64
2019-01-28T14:46:59.732Z,0.68
2019-01-28T14:49:54.512Z,0.66
2019-01-28T14:52:18.091Z,0.61
2019-01-28T14:55:06.008Z,0.59
2019-01-28T14:58:16.450Z,0.59
2019-01-28T15:01:24.676Z,0.72
2019-01-28T15:03:53.451Z,0.64
2019-01-28T15:06:22.212Z,0.65
2019-01-28T15:08:50.906Z,0.62
2019-01-28T15:13:54.267Z,0.68
2019-01-28T15:16:22.934Z,0.64
2019-01-28T15:18:51.635Z,0.62
2019-01-28T15:21:39.472Z,0.62
2019-01-28T15:26:43.450Z,0.63
2019-01-28T15:29:12.196Z,0.69
2019-01-28T15:32:00.050Z,0.59
2019-01-28T15:34:28.710Z,0.59
2019-01-28T15:36:57.355Z,0.63
2019-01-28T15:39:45.305Z,0.60
2019-01-28T15:42:14.007Z,0.54
2019-01-28T15:44:42.677Z,0.60
2019-01-28T15:47:11.583Z,0.58
2019-01-28T15:49:40.255Z,0.60
2019-01-28T15:52:09.026Z,0.63
2019-01-28T15:54:37.685Z,0.62
2019-01-28T15:57:06.371Z,0.53
2019-01-28T15:59:35.080Z,0.54
2019-01-28T16:02:03.885Z,0.57
2019-01-28T16:04:32.612Z,0.55
2019-01-28T16:07:01.340Z,0.65
2019-01-28T16:09:30.039Z,0.60
2019-01-28T16:11:58.757Z,0.64
2019-01-28T16:14:27.462Z,0.61
2019-01-28T16:16:56.157Z,0.58
2019-01-28T16:19:24.796Z,0.54
2019-01-28T16:21:53.513Z,0.55
2019-01-28T16:24:22.169Z,0.52
2019-01-28T16:26:50.984Z,0.50
2019-01-28T16:29:19.684Z,0.47
2019-01-28T16:31:48.388Z,0.53
2019-01-28T16:34:17.047Z,0.50
2019-01-28T16:36:45.752Z,0.60
2019-01-28T16:39:14.495Z,0.52
2019-01-28T16:41:50.258Z,0.59
2019-01-28T16:44:18.920Z,0.50
2019-01-28T16:46:47.611Z,0.48
2019-01-28T16:49:16.268Z,0.53
2019-01-28T16:51:44.976Z,0.50
2019-01-28T16:54:13.636Z,0.45
2019-01-28T16:56:42.327Z,0.48
2019-01-28T16:59:11.056Z,0.43
2019-01-28T17:01:39.720Z,0.47
2019-01-28T17:04:08.514Z,0.50
2019-01-28T17:06:37.199Z,0.51
2019-01-28T17:09:45.636Z,0.47
2019-01-28T17:12:14.399Z,0.48
2019-01-28T17:14:43.057Z,0.49
2019-01-28T17:17:11.741Z,0.49
2019-01-28T17:19:40.447Z,0.50
2019-01-28T17:22:09.137Z,0.52
2019-01-28T17:24:37.800Z,0.47
2019-01-28T17:27:06.491Z,0.53
2019-01-28T17:29:35.139Z,0.56
2019-01-28T17:32:03.853Z,0.56
2019-01-28T17:34:32.614Z,0.50
2019-01-28T17:39:55.656Z,0.55
2019-01-28T17:42:24.319Z,0.58
2019-01-28T17:44:53.002Z,0.58
2019-01-28T17:47:21.775Z,0.57
2019-01-28T17:49:50.483Z,0.56
2019-01-28T17:52:19.213Z,0.54
2019-01-28T17:54:47.871Z,0.52
2019-01-28T17:57:16.579Z,0.49
2019-01-28T17:59:45.308Z,0.59
2019-01-28T18:02:13.996Z,0.57
2019-01-28T18:04:42.656Z,0.55
2019-01-28T18:07:11.454Z,0.52
2019-01-28T18:09:40.090Z,0.55
2019-01-28T18:12:08.788Z,0.57
2019-01-28T18:14:37.492Z,0.53
2019-01-28T18:17:06.148Z,0.58
2019-01-28T18:22:10.493Z,0.57
2019-01-28T18:24:39.193Z,0.53
2019-01-28T18:27:07.901Z,0.55
2019-01-28T18:29:36.542Z,0.51
2019-01-28T18:32:05.310Z,0.59
2019-01-28T18:34:34.004Z,0.58
2019-01-28T18:40:50.684Z,0.61
2019-01-28T18:43:19.350Z,0.57
2019-01-28T18:45:48.050Z,0.58
2019-01-28T18:48:16.911Z,0.59
2019-01-28T18:50:45.601Z,0.58
2019-01-28T18:53:14.300Z,0.59
2019-01-28T18:55:43.199Z,0.62
2019-01-28T18:58:11.887Z,0.63
2019-01-28T19:00:40.565Z,0.65
2019-01-28T19:03:09.273Z,0.61
2019-01-28T19:05:57.038Z,0.59
2019-01-28T19:08:44.871Z,0.59
2019-01-28T19:14:08.445Z,0.63
2019-01-28T19:16:56.234Z,0.62
2019-01-28T19:19:44.069Z,0.60
2019-01-28T19:22:12.841Z,0.61
2019-01-28T19:24:41.497Z,0.68
2019-01-28T19:27:10.213Z,0.59
2019-01-28T19:29:38.949Z,0.60
2019-01-28T19:32:07.732Z,0.61
2019-01-28T19:34:36.398Z,0.58
2019-01-28T19:37:05.086Z,0.58
2019-01-28T19:39:33.771Z,0.63
2019-01-28T19:42:02.437Z,0.62
2019-01-28T19:44:31.138Z,0.58
2019-01-28T19:46:59.918Z,0.56
2019-01-28T19:49:28.624Z,0.60
2019-01-28T19:52:17.388Z,0.57
2019-01-28T20:17:53.174Z,0.57
2019-01-28T20:20:21.821Z,0.57
2019-01-28T20:22:50.558Z,0.73
2019-01-28T20:25:59.000Z,0.57
2019-01-28T20:28:27.759Z,0.57
2019-01-28T20:30:56.450Z,0.57
2019-01-28T20:33:25.164Z,0.59
2019-01-28T20:35:53.826Z,0.58
2019-01-28T20:38:22.705Z,0.57
2019-01-28T20:40:51.403Z,0.62
2019-01-28T20:43:24.182Z,0.59
2019-01-28T20:45:50.547Z,0.61
2019-01-28T20:48:19.273Z,0.64
2019-01-28T20:50:47.962Z,0.62
2019-01-28T20:53:16.625Z,0.63
2019-01-28T20:55:45.312Z,0.62
2019-01-28T20:58:13.960Z,0.58
2019-01-28T21:00:42.679Z,0.58
2019-01-28T21:03:11.339Z,0.58
2019-01-28T21:05:40.002Z,0.59
2019-01-28T21:08:08.708Z,0.60
2019-01-28T21:10:37.552Z,0.53
2019-01-28T21:13:46.027Z,0.52
2019-01-28T21:16:14.734Z,0.54
2019-01-28T21:18:43.432Z,0.55
2019-01-28T21:21:12.166Z,0.58
2019-01-28T21:23:40.877Z,0.56
2019-01-28T21:26:09.579Z,0.51
2019-01-28T21:28:38.226Z,0.47
2019-01-28T21:31:07.015Z,0.54
2019-01-28T21:33:35.680Z,0.51
2019-01-28T21:38:59.203Z,0.52
2019-01-28T21:41:27.870Z,0.52
2019-01-28T21:43:56.541Z,0.51
2019-01-28T21:46:25.326Z,0.46
2019-01-28T21:48:53.983Z,0.47
2019-01-28T21:51:22.786Z,0.52
2019-01-28T21:53:51.463Z,0.46
2019-01-28T21:56:20.113Z,0.52
2019-01-28T21:58:48.803Z,0.47
2019-01-28T22:01:17.509Z,0.49
2019-01-28T22:03:46.250Z,0.52
2019-01-28T22:06:14.936Z,0.47
2019-01-28T22:08:43.600Z,0.49
2019-01-28T22:11:12.308Z,0.54
2019-01-28T22:13:41.131Z,0.45
2019-01-28T22:16:09.845Z,0.49
2019-01-28T22:18:38.512Z,0.53
2019-01-28T22:23:42.715Z,0.47
2019-01-28T22:26:11.427Z,0.50
2019-01-28T22:28:40.067Z,0.44
2019-01-28T22:31:08.717Z,0.38
2019-01-28T22:33:37.423Z,0.36
2019-01-28T22:36:06.116Z,0.30
2019-01-28T22:38:34.822Z,0.32
2019-01-28T22:41:03.488Z,0.34
2019-01-28T22:43:32.201Z,0.39
2019-01-28T22:46:00.903Z,0.39
2019-01-28T22:49:09.386Z,0.35
2019-01-28T22:51:38.065Z,0.42
2019-01-28T22:54:06.771Z,0.47
2019-01-28T22:56:35.436Z,0.47
2019-01-28T23:01:58.716Z,0.39
2019-01-28T23:04:27.364Z,0.37
2019-01-28T23:06:56.089Z,0.34
2019-01-28T23:09:24.749Z,0.31
2019-01-28T23:11:53.527Z,0.30
2019-01-28T23:14:22.215Z,0.32
2019-01-28T23:16:50.921Z,0.41
2019-01-28T23:19:19.580Z,0.39
2019-01-28T23:21:48.279Z,0.37
2019-01-28T23:24:36.182Z,0.42
2019-01-28T23:27:04.848Z,0.40
2019-01-28T23:29:33.543Z,0.44
2019-01-28T23:32:02.312Z,0.37
2019-01-28T23:34:31.048Z,0.34
2019-01-28T23:36:59.710Z,0.32
2019-01-28T23:39:28.420Z,0.28
2019-01-28T23:41:57.076Z,0.34
2019-01-28T23:44:25.856Z,0.32
2019-01-28T23:46:54.521Z,0.30
2019-01-28T23:49:23.301Z,0.38
2019-01-28T23:51:51.949Z,0.31
2019-01-28T23:54:20.713Z,0.28
2019-01-28T23:56:49.441Z,0.28
2019-01-28T23:59:18.131Z,0.25
